Time;durP1;ratioP1;P1;durP2;ratioP2;P2;SDS_P1;SDS_P2;PMS_P1;PMS_P2;Temp;Humidity;BMP_temperature;BMP_pressure;BME280_temperature;BME280_humidity;BME280_pressure;Samples;Min_cycle;Max_cycle;Signal;HPM_P1;HPM_P2
2023/04/21 00:01:47;;;;;;;61.38;36.28;;;9.20;46.80;;;;;;5056935;28;20036;-68
2023/04/21 00:04:13;;;;;;;59.13;36.28;;;9.20;48.90;;;;;;5057362;28;20122;-68
2023/04/21 00:06:40;;;;;;;57.38;35.80;;;9.10;57.00;;;;;;5057006;28;20113;-68
2023/04/21 00:09:07;;;;;;;57.50;37.08;;;9.10;60.50;;;;;;5057285;28;20020;-67
2023/04/21 00:11:32;;;;;;;60.28;36.65;;;9.10;63.00;;;;;;5057232;28;20471;-67
2023/04/21 00:13:58;;;;;;;58.95;36.35;;;9.10;66.70;;;;;;5057186;28;20028;-67
2023/04/21 00:16:23;;;;;;;63.72;37.28;;;9.10;71.60;;;;;;5056843;28;20025;-67
2023/04/21 00:18:49;;;;;;;58.42;36.50;;;9.10;73.80;;;;;;5056796;28;20479;-68
2023/04/21 00:21:15;;;;;;;57.38;37.30;;;9.20;79.50;;;;;;5056698;28;20483;-68
2023/04/21 00:23:40;;;;;;;56.88;34.60;;;9.20;78.50;;;;;;5056964;28;20050;-67
2023/04/21 00:26:06;;;;;;;60.88;36.20;;;9.20;77.90;;;;;;5056933;28;20091;-68
2023/04/21 00:28:31;;;;;;;57.67;36.35;;;9.20;78.00;;;;;;5056955;28;20115;-68
2023/04/21 00:30:57;;;;;;;58.78;35.42;;;9.20;79.80;;;;;;5056548;28;20067;-67
2023/04/21 00:33:22;;;;;;;56.70;36.20;;;9.20;82.70;;;;;;5056789;28;20029;-67
2023/04/21 00:35:48;;;;;;;58.78;36.10;;;9.20;82.80;;;;;;5056119;28;20032;-67
2023/04/21 00:38:13;;;;;;;56.50;36.58;;;9.20;85.00;;;;;;5056634;28;20021;-67
2023/04/21 00:40:39;;;;;;;58.70;35.67;;;9.20;87.80;;;;;;5056414;28;20029;-68
2023/04/21 00:43:06;;;;;;;63.20;37.17;;;9.30;87.80;;;;;;5056738;28;20029;-67
2023/04/21 00:45:32;;;;;;;58.17;36.83;;;9.30;87.30;;;;;;5056702;28;20641;-67
2023/04/21 00:47:58;;;;;;;58.30;35.72;;;9.30;85.50;;;;;;5056317;28;20120;-67
2023/04/21 00:50:24;;;;;;;59.00;36.88;;;9.40;84.30;;;;;;5056235;28;20068;-67
2023/04/21 00:52:49;;;;;;;58.53;36.80;;;9.40;84.60;;;;;;5056273;28;20025;-68
2023/04/21 00:55:15;;;;;;;60.85;38.50;;;9.40;84.30;;;;;;5056136;28;20067;-67
2023/04/21 00:57:42;;;;;;;54.90;36.42;;;9.40;87.70;;;;;;5055891;28;20136;-67
2023/04/21 01:00:09;;;;;;;55.90;37.25;;;9.50;87.40;;;;;;5055682;28;20021;-67
2023/04/21 01:02:36;;;;;;;59.28;37.75;;;9.50;88.30;;;;;;5055432;28;20494;-67
2023/04/21 01:05:05;;;;;;;59.22;37.55;;;9.50;86.60;;;;;;5056267;28;20021;-68
2023/04/21 01:07:31;;;;;;;62.33;37.90;;;9.50;88.70;;;;;;5055756;28;20032;-68
2023/04/21 01:09:58;;;;;;;60.40;36.92;;;9.50;90.20;;;;;;5055325;28;20390;-67
2023/04/21 01:12:24;;;;;;;59.05;38.08;;;9.50;91.60;;;;;;5056172;28;20033;-67
2023/04/21 01:14:49;;;;;;;59.92;37.97;;;9.50;92.50;;;;;;5055609;28;20029;-68
2023/04/21 01:17:17;;;;;;;59.85;37.78;;;9.50;92.70;;;;;;5056072;28;20039;-68
2023/04/21 01:19:44;;;;;;;60.75;38.65;;;9.50;92.80;;;;;;5055378;28;20021;-68
2023/04/21 01:22:11;;;;;;;65.40;39.85;;;9.50;93.10;;;;;;5055439;28;20025;-68
2023/04/21 01:24:40;;;;;;;66.32;38.55;;;9.50;93.80;;;;;;5055346;28;20082;-67
2023/04/21 01:27:17;;;;;;;59.95;36.90;;;9.60;94.90;;;;;;5055751;28;20021;-67
2023/04/21 01:29:45;;;;;;;62.75;38.80;;;9.50;95.50;;;;;;5055368;28;20029;-67
2023/04/21 01:32:14;;;;;;;64.85;38.90;;;9.60;96.50;;;;;;5055266;28;20028;-67
2023/04/21 01:34:41;;;;;;;63.70;38.03;;;9.60;96.80;;;;;;5055046;28;20032;-67
2023/04/21 01:37:09;;;;;;;61.75;38.75;;;9.60;98.20;;;;;;5055681;28;20375;-67
2023/04/21 01:39:46;;;;;;;62.47;38.88;;;9.60;99.00;;;;;;5055604;28;20363;-67
2023/04/21 01:42:12;;;;;;;65.85;40.13;;;9.60;99.70;;;;;;5054220;28;20028;-68
2023/04/21 01:44:38;;;;;;;63.63;38.83;;;9.60;99.90;;;;;;5055495;28;20021;-67
2023/04/21 01:47:05;;;;;;;62.85;38.75;;;9.60;99.90;;;;;;5055161;28;20037;-68
2023/04/21 01:49:31;;;;;;;59.33;38.78;;;9.70;99.90;;;;;;5055462;28;20029;-68
2023/04/21 01:51:56;;;;;;;63.45;39.20;;;9.60;99.90;;;;;;5055004;28;20086;-67
2023/04/21 01:54:22;;;;;;;68.15;40.78;;;9.70;99.90;;;;;;5055040;28;20029;-68
2023/04/21 01:56:47;;;;;;;63.03;39.88;;;9.70;99.90;;;;;;5055205;28;20025;-67
2023/04/21 01:59:13;;;;;;;62.45;40.03;;;9.70;99.90;;;;;;5054069;28;20115;-69
2023/04/21 02:01:38;;;;;;;61.90;39.05;;;9.70;99.20;;;;;;5054916;28;20402;-67
2023/04/21 02:04:04;;;;;;;66.65;39.22;;;9.70;99.10;;;;;;5055140;28;20032;-67
2023/04/21 02:06:30;;;;;;;60.40;39.03;;;9.80;98.20;;;;;;5055131;28;20358;-68
2023/04/21 02:08:57;;;;;;;60.90;37.88;;;9.80;98.00;;;;;;5054729;28;20032;-68
2023/04/21 02:11:24;;;;;;;61.72;39.33;;;9.80;98.00;;;;;;5054694;28;20032;-67
2023/04/21 02:13:51;;;;;;;57.10;37.85;;;9.80;97.60;;;;;;5054977;28;20352;-68
2023/04/21 02:16:17;;;;;;;59.08;37.67;;;9.80;95.50;;;;;;5054628;28;20090;-67
2023/04/21 02:18:43;;;;;;;53.15;36.10;;;9.90;93.80;;;;;;5054171;28;20082;-67
2023/04/21 02:21:09;;;;;;;61.03;37.90;;;9.90;92.00;;;;;;5053263;28;20029;-67
2023/04/21 02:23:34;;;;;;;59.92;36.65;;;9.90;89.30;;;;;;5054873;28;20050;-66
2023/04/21 02:26:00;;;;;;;59.15;35.78;;;10.00;87.40;;;;;;5054423;28;20025;-67
2023/04/21 02:28:25;;;;;;;57.58;35.28;;;10.00;75.10;;;;;;5054031;28;20462;-67
2023/04/21 02:30:51;;;;;;;56.05;35.97;;;10.00;71.60;;;;;;5054065;28;20083;-67
2023/04/21 02:33:16;;;;;;;53.30;34.97;;;10.10;65.20;;;;;;5053738;28;20044;-67
2023/04/21 02:35:42;;;;;;;55.67;36.88;;;10.10;60.90;;;;;;5054032;28;20033;-67
2023/04/21 02:38:07;;;;;;;56.40;35.17;;;10.10;57.20;;;;;;5054165;28;20033;-68
2023/04/21 02:40:33;;;;;;;56.88;35.63;;;10.10;54.90;;;;;;5054141;28;20466;-67
2023/04/21 02:42:59;;;;;;;52.05;34.05;;;10.10;54.00;;;;;;5053769;28;20063;-68
2023/04/21 02:45:24;;;;;;;54.05;35.38;;;10.10;54.40;;;;;;5054086;28;20029;-67
2023/04/21 02:47:50;;;;;;;55.75;35.28;;;10.10;53.60;;;;;;5053934;28;20025;-67
2023/04/21 02:50:16;;;;;;;53.75;33.97;;;10.10;53.50;;;;;;5054374;28;20028;-67
2023/04/21 02:52:41;;;;;;;52.65;34.05;;;10.10;53.50;;;;;;5053735;28;20036;-67
2023/04/21 02:55:07;;;;;;;54.35;34.03;;;10.10;51.90;;;;;;5054171;28;20051;-67
2023/04/21 02:57:32;;;;;;;58.00;34.33;;;10.10;52.00;;;;;;5053803;28;20049;-67
2023/04/21 02:59:58;;;;;;;57.33;35.75;;;10.10;52.50;;;;;;5054156;28;20028;-67
2023/04/21 03:02:23;;;;;;;52.67;34.65;;;10.10;54.50;;;;;;5053099;28;20028;-67
2023/04/21 03:04:49;;;;;;;53.05;34.17;;;10.10;54.00;;;;;;5054105;28;20028;-68
2023/04/21 03:07:15;;;;;;;53.35;33.97;;;10.10;51.50;;;;;;5053004;28;20017;-67
2023/04/21 03:09:41;;;;;;;50.97;34.42;;;10.10;51.50;;;;;;5053636;28;20021;-67
2023/04/21 03:12:07;;;;;;;52.15;34.25;;;10.20;52.50;;;;;;5053840;28;20079;-67
2023/04/21 03:14:32;;;;;;;53.90;33.08;;;10.10;52.10;;;;;;5053527;28;20116;-67
2023/04/21 03:16:58;;;;;;;53.42;34.55;;;10.10;52.80;;;;;;5054084;28;20107;-67
2023/04/21 03:19:23;;;;;;;53.55;33.58;;;10.10;53.10;;;;;;5053789;28;20033;-67
2023/04/21 03:21:49;;;;;;;55.47;33.50;;;10.10;52.70;;;;;;5053048;28;20025;-66
2023/04/21 03:24:14;;;;;;;49.80;32.78;;;10.10;54.60;;;;;;5053718;28;20029;-67
2023/04/21 03:26:40;;;;;;;55.90;34.53;;;10.10;56.70;;;;;;5053893;28;20049;-67
2023/04/21 03:29:06;;;;;;;57.10;34.85;;;10.10;56.40;;;;;;5053335;28;20040;-67
2023/04/21 03:31:32;;;;;;;51.25;33.80;;;10.10;53.30;;;;;;5055235;28;20025;-67
2023/04/21 03:33:57;;;;;;;49.78;33.08;;;10.20;49.40;;;;;;5057557;28;20040;-67
2023/04/21 03:36:23;;;;;;;53.28;33.75;;;10.20;46.20;;;;;;5057970;28;20111;-67
2023/04/21 03:38:49;;;;;;;53.50;34.40;;;10.30;41.80;;;;;;5057610;28;20033;-67
2023/04/21 03:41:14;;;;;;;51.45;33.03;;;10.30;41.40;;;;;;5057206;28;20029;-67
2023/04/21 03:43:40;;;;;;;50.03;33.10;;;10.30;37.90;;;;;;5057462;28;20458;-67
2023/04/21 03:46:05;;;;;;;51.42;32.15;;;10.30;36.70;;;;;;5057433;28;20021;-67
2023/04/21 03:48:31;;;;;;;56.92;32.83;;;10.30;37.80;;;;;;5057586;28;20016;-67
2023/04/21 03:50:56;;;;;;;52.95;33.47;;;10.30;35.30;;;;;;5057469;28;20374;-67
2023/04/21 03:53:22;;;;;;;51.78;33.20;;;10.40;25.50;;;;;;5056687;28;20537;-67
2023/04/21 03:55:49;;;;;;;52.97;32.40;;;10.40;21.80;;;;;;5057354;28;20075;-67
2023/04/21 03:58:15;;;;;;;50.55;32.17;;;10.40;18.70;;;;;;5056532;28;20095;-68
2023/04/21 04:00:41;;;;;;;50.28;31.67;;;10.40;15.30;;;;;;5056976;28;20429;-66
2023/04/21 04:03:06;;;;;;;49.38;31.77;;;10.50;12.40;;;;;;5057168;28;20033;-67
2023/04/21 04:05:34;;;;;;;52.88;32.10;;;10.50;12.80;;;;;;5057057;28;20439;-66
2023/04/21 04:07:59;;;;;;;49.28;30.75;;;10.50;11.60;;;;;;5056692;28;20048;-67
2023/04/21 04:10:25;;;;;;;50.72;32.20;;;10.50;14.10;;;;;;5056865;28;20058;-67
2023/04/21 04:12:50;;;;;;;47.22;31.63;;;10.50;8.10;;;;;;5057020;28;20064;-68
2023/04/21 04:15:16;;;;;;;49.63;31.58;;;10.50;9.30;;;;;;5057222;28;20254;-68
2023/04/21 04:17:41;;;;;;;51.50;31.50;;;10.50;8.00;;;;;;5056508;28;20037;-67
2023/04/21 04:20:07;;;;;;;51.75;31.98;;;10.50;7.20;;;;;;5056014;28;20029;-67
2023/04/21 04:22:33;;;;;;;49.00;31.83;;;10.50;5.20;;;;;;5055861;28;20025;-67
2023/04/21 04:25:00;;;;;;;47.90;31.35;;;10.50;2.30;;;;;;5057102;28;20029;-67
2023/04/21 04:27:27;;;;;;;51.17;31.60;;;10.50;1.10;;;;;;5056744;28;20025;-67
2023/04/21 04:29:53;;;;;;;50.45;31.75;;;10.50;1.00;;;;;;5056752;28;20024;-68
2023/04/21 04:32:18;;;;;;;47.85;32.13;;;10.50;1.00;;;;;;5056878;28;20021;-68
2023/04/21 04:34:44;;;;;;;50.25;30.20;;;10.50;2.30;;;;;;5056412;28;20378;-67
2023/04/21 04:37:10;;;;;;;51.60;31.73;;;10.50;1.00;;;;;;5056854;28;20517;-67
2023/04/21 04:39:36;;;;;;;50.05;31.10;;;10.50;1.00;;;;;;5056672;28;20409;-67
2023/04/21 04:42:02;;;;;;;51.10;31.33;;;10.50;2.30;;;;;;5056433;28;20036;-67
2023/04/21 04:44:28;;;;;;;53.00;32.78;;;10.50;1.00;;;;;;5055810;28;20029;-67
2023/04/21 04:46:55;;;;;;;50.25;31.52;;;10.50;1.00;;;;;;5056227;28;20027;-67
2023/04/21 04:49:20;;;;;;;50.80;31.98;;;10.60;1.00;;;;;;5056499;28;20060;-66
2023/04/21 04:51:46;;;;;;;48.90;31.30;;;10.60;1.00;;;;;;5056311;28;20067;-67
2023/04/21 04:54:11;;;;;;;49.92;30.20;;;10.70;1.00;;;;;;5055879;28;20078;-67
2023/04/21 04:56:38;;;;;;;47.53;30.45;;;10.70;1.00;;;;;;5056468;28;20098;-67
2023/04/21 04:59:03;;;;;;;59.63;30.50;;;10.80;1.00;;;;;;5054904;28;20052;-67
2023/04/21 05:01:29;;;;;;;49.85;31.17;;;10.80;1.00;;;;;;5055748;28;20033;-67
2023/04/21 05:03:55;;;;;;;49.50;31.73;;;10.70;1.00;;;;;;5056375;28;20013;-68
2023/04/21 05:06:22;;;;;;;45.00;29.25;;;10.70;1.00;;;;;;5056223;28;20021;-67
2023/04/21 05:08:47;;;;;;;48.92;31.70;;;10.70;1.00;;;;;;5056098;28;20351;-67
2023/04/21 05:11:13;;;;;;;52.90;31.83;;;10.80;1.00;;;;;;5055108;28;20029;-67
2023/04/21 05:13:38;;;;;;;46.20;29.58;;;10.80;1.00;;;;;;5055719;28;20029;-67
2023/04/21 05:16:05;;;;;;;49.42;30.20;;;10.80;1.00;;;;;;5055805;28;20029;-67
2023/04/21 05:18:30;;;;;;;52.72;29.92;;;10.80;1.00;;;;;;5055530;28;20055;-67
2023/04/21 05:20:56;;;;;;;46.92;30.02;;;10.80;1.00;;;;;;5055571;28;20120;-67
2023/04/21 05:23:21;;;;;;;49.55;30.42;;;10.80;1.00;;;;;;5055425;28;20108;-67
2023/04/21 05:25:47;;;;;;;49.83;30.08;;;10.90;1.00;;;;;;5055522;28;20111;-67
2023/04/21 05:28:14;;;;;;;47.90;30.70;;;10.90;1.00;;;;;;5055887;28;20064;-67
2023/04/21 05:30:39;;;;;;;50.55;29.83;;;10.90;1.00;;;;;;5055773;28;20024;-66
2023/04/21 05:33:05;;;;;;;47.38;29.23;;;10.90;1.00;;;;;;5055513;28;20509;-67
2023/04/21 05:35:31;;;;;;;46.10;30.27;;;11.00;1.00;;;;;;5054853;28;20033;-67
2023/04/21 05:37:56;;;;;;;48.22;30.63;;;11.00;1.00;;;;;;5054442;28;20065;-67
2023/04/21 05:40:22;;;;;;;47.05;29.80;;;11.00;1.00;;;;;;5055464;28;20021;-67
2023/04/21 05:42:47;;;;;;;44.08;29.40;;;11.10;1.00;;;;;;5054992;28;20032;-67
2023/04/21 05:45:13;;;;;;;44.35;28.70;;;11.20;1.00;;;;;;5054775;28;20025;-67
2023/04/21 05:47:39;;;;;;;40.53;28.67;;;11.20;1.00;;;;;;5055199;28;20114;-67
2023/04/21 05:50:06;;;;;;;44.58;28.75;;;11.20;1.00;;;;;;5055041;28;20036;-68
2023/04/21 05:52:31;;;;;;;41.38;28.35;;;11.20;1.00;;;;;;5054339;28;20025;-67
2023/04/21 05:54:58;;;;;;;46.55;29.65;;;11.20;1.00;;;;;;5055003;28;20389;-67
2023/04/21 05:57:24;;;;;;;43.63;29.00;;;11.20;1.00;;;;;;5054665;28;20531;-67
2023/04/21 05:59:49;;;;;;;50.53;31.35;;;11.20;1.00;;;;;;5054979;28;20063;-67
2023/04/21 06:02:15;;;;;;;52.08;28.88;;;11.20;1.00;;;;;;5054443;28;20112;-67
2023/04/21 06:04:40;;;;;;;45.60;29.02;;;11.20;1.00;;;;;;5054440;28;20378;-67
2023/04/21 06:07:07;;;;;;;48.05;29.73;;;11.30;1.00;;;;;;5054577;28;20021;-67
2023/04/21 06:09:35;;;;;;;46.88;30.30;;;11.30;1.00;;;;;;5055082;28;20056;-67
2023/04/21 06:12:01;;;;;;;50.92;30.48;;;11.40;1.00;;;;;;5053410;28;20387;-68
2023/04/21 06:14:26;;;;;;;48.97;30.38;;;11.30;1.00;;;;;;5070743;28;20335;-67
2023/04/21 06:16:52;;;;;;;49.13;29.45;;;11.40;1.00;;;;;;5066617;28;20032;-67
2023/04/21 06:19:17;;;;;;;48.35;30.30;;;11.40;99.90;;;;;;5066210;28;20090;-67
2023/04/21 06:21:43;;;;;;;50.90;30.08;;;11.40;99.90;;;;;;5071566;28;20039;-68
2023/04/21 06:24:08;;;;;;;43.92;29.42;;;11.40;99.90;;;;;;5054932;28;20025;-67
2023/04/21 06:26:34;;;;;;;48.72;30.55;;;11.40;99.90;;;;;;5062920;28;20017;-67
2023/04/21 06:28:59;;;;;;;50.85;30.35;;;11.50;99.90;;;;;;5073736;28;20037;-67
2023/04/21 06:31:25;;;;;;;49.17;29.92;;;11.40;99.90;;;;;;5072884;28;20055;-68
2023/04/21 06:33:51;;;;;;;51.38;30.55;;;11.50;99.90;;;;;;5073216;28;20051;-67
2023/04/21 06:36:17;;;;;;;46.10;29.75;;;11.60;99.90;;;;;;5073795;28;20490;-67
2023/04/21 06:38:42;;;;;;;48.25;30.70;;;11.60;99.90;;;;;;5073412;28;20068;-67
2023/04/21 06:41:09;;;;;;;44.90;28.73;;;11.60;99.90;;;;;;5072930;28;20494;-67
2023/04/21 06:43:35;;;;;;;49.38;31.55;;;11.70;99.90;;;;;;5073259;28;20032;-67
2023/04/21 06:46:00;;;;;;;48.75;31.17;;;11.80;99.90;;;;;;5073164;28;20020;-67
2023/04/21 06:48:26;;;;;;;44.50;28.88;;;11.80;99.90;;;;;;5073134;28;20039;-67
2023/04/21 06:50:52;;;;;;;48.67;30.17;;;11.90;99.90;;;;;;5074009;28;20028;-67
2023/04/21 06:53:18;;;;;;;45.85;29.17;;;12.00;99.90;;;;;;5073355;28;20033;-66
2023/04/21 06:55:43;;;;;;;43.33;28.70;;;12.10;99.90;;;;;;5073676;28;20390;-67
2023/04/21 06:58:10;;;;;;;47.08;29.42;;;12.30;99.90;;;;;;5072858;28;20410;-68
2023/04/21 07:00:35;;;;;;;44.53;29.23;;;12.50;99.90;;;;;;5072294;28;20056;-68
2023/04/21 07:03:01;;;;;;;45.55;29.25;;;12.70;22.80;;;;;;5071607;28;20062;-68
2023/04/21 07:05:26;;;;;;;48.15;27.38;;;12.80;1.00;;;;;;5072943;28;20051;-67
2023/04/21 07:07:54;;;;;;;43.58;28.17;;;13.20;1.00;;;;;;5068867;28;20136;-68
2023/04/21 07:10:20;;;;;;;44.13;27.52;;;13.30;99.90;;;;;;5070376;28;20025;-68
2023/04/21 07:12:45;;;;;;;44.50;27.15;;;13.50;99.90;;;;;;5072528;28;20041;-68
2023/04/21 07:15:11;;;;;;;41.85;25.10;;;14.00;99.90;;;;;;5072764;28;20059;-67
2023/04/21 07:17:37;;;;;;;40.78;27.73;;;13.80;16.20;;;;;;5071752;28;20028;-67
2023/04/21 07:20:03;;;;;;;39.13;26.55;;;13.70;99.90;;;;;;5073713;28;20032;-67
2023/04/21 07:22:28;;;;;;;45.72;27.88;;;13.50;99.90;;;;;;5073075;28;20078;-68
2023/04/21 07:24:54;;;;;;;43.15;27.63;;;13.40;99.90;;;;;;5073384;28;20020;-68
2023/04/21 07:27:19;;;;;;;40.13;28.08;;;13.00;99.90;;;;;;5073338;28;20022;-68
2023/04/21 07:29:45;;;;;;;46.40;29.02;;;12.80;99.90;;;;;;5072969;28;20074;-67
2023/04/21 07:32:10;;;;;;;45.30;28.55;;;12.80;1.00;;;;;;5071898;28;20036;-68
2023/04/21 07:34:36;;;;;;;41.08;27.40;;;12.80;1.00;;;;;;5070985;28;20075;-68
2023/04/21 07:37:01;;;;;;;42.28;27.50;;;12.80;1.00;;;;;;5068839;28;20033;-68
2023/04/21 07:39:27;;;;;;;39.15;26.92;;;13.00;1.00;;;;;;5072791;28;20041;-68
2023/04/21 07:41:54;;;;;;;43.47;28.55;;;13.10;99.90;;;;;;5072894;28;20036;-67
2023/04/21 07:44:20;;;;;;;41.60;28.10;;;13.00;99.90;;;;;;5071553;28;20020;-68
2023/04/21 07:46:45;;;;;;;40.13;27.13;;;13.10;99.90;;;;;;5072714;28;20020;-68
2023/04/21 07:49:11;;;;;;;43.15;26.98;;;13.50;99.90;;;;;;5073607;28;20028;-67
2023/04/21 07:51:36;;;;;;;42.72;27.73;;;13.60;99.90;;;;;;5073328;28;20090;-67
2023/04/21 07:54:02;;;;;;;43.45;27.42;;;13.90;1.00;;;;;;5071790;28;20406;-68
2023/04/21 07:56:27;;;;;;;42.30;27.23;;;13.90;1.00;;;;;;5071272;28;20035;-67
2023/04/21 07:58:53;;;;;;;38.95;26.77;;;13.80;1.00;;;;;;5070693;28;20510;-68
2023/04/21 08:01:19;;;;;;;41.25;27.05;;;13.70;1.00;;;;;;5072965;28;20051;-67
2023/04/21 08:03:45;;;;;;;42.08;27.00;;;13.80;38.10;;;;;;5071649;28;20017;-68
2023/04/21 08:06:10;;;;;;;42.47;27.40;;;13.80;1.00;;;;;;5068047;28;20040;-68
2023/04/21 08:08:36;;;;;;;45.47;28.00;;;14.00;24.90;;;;;;5056145;28;20029;-68
2023/04/21 08:11:01;;;;;;;40.03;25.85;;;14.00;1.00;;;;;;5072197;28;20067;-68
2023/04/21 08:13:27;;;;;;;42.38;27.45;;;14.10;1.00;;;;;;5072454;28;20041;-67
2023/04/21 08:15:53;;;;;;;43.90;28.42;;;14.20;1.00;;;;;;5072492;28;20082;-68
2023/04/21 08:18:19;;;;;;;40.60;26.77;;;14.20;1.00;;;;;;5070450;28;20020;-68
2023/04/21 08:20:47;;;;;;;45.17;27.52;;;13.90;1.00;;;;;;5075994;28;20493;-67
2023/04/21 08:23:14;;;;;;;39.42;27.20;;;13.90;1.00;;;;;;5075960;28;20454;-67
2023/04/21 08:25:39;;;;;;;38.08;26.30;;;13.90;1.00;;;;;;5075861;28;20054;-67
2023/04/21 08:28:05;;;;;;;45.20;28.17;;;13.90;1.00;;;;;;5076626;28;20082;-67
2023/04/21 08:30:30;;;;;;;39.22;26.65;;;13.90;1.00;;;;;;5075522;28;20116;-67
2023/04/21 08:32:56;;;;;;;42.65;26.83;;;13.90;1.00;;;;;;5073060;28;20028;-68
2023/04/21 08:35:22;;;;;;;40.25;26.85;;;13.80;5.00;;;;;;5075459;28;20544;-68
2023/04/21 08:37:47;;;;;;;38.80;26.30;;;13.80;18.70;;;;;;5075181;28;20485;-68
2023/04/21 08:40:13;;;;;;;39.28;27.08;;;13.80;1.00;;;;;;5073760;28;20024;-67
2023/04/21 08:42:38;;;;;;;44.42;27.52;;;13.80;59.00;;;;;;5074118;28;20387;-67
2023/04/21 08:45:05;;;;;;;44.70;27.92;;;13.90;1.00;;;;;;5070679;28;20394;-67
2023/04/21 08:47:32;;;;;;;41.03;26.92;;;14.20;1.00;;;;;;5074468;28;20020;-68
2023/04/21 08:49:58;;;;;;;39.20;27.58;;;14.10;1.00;;;;;;5074591;28;20024;-67
2023/04/21 08:52:24;;;;;;;41.83;26.85;;;14.20;1.00;;;;;;5081455;28;20032;-67
2023/04/21 08:54:52;;;;;;;39.65;26.83;;;14.40;1.00;;;;;;5075846;28;20040;-68
2023/04/21 08:57:18;;;;;;;43.55;27.38;;;14.50;99.90;;;;;;5073317;28;20055;-67
2023/04/21 08:59:44;;;;;;;40.88;27.02;;;14.60;99.90;;;;;;5074699;28;20120;-67
2023/04/21 09:02:14;;;;;;;41.00;27.27;;;14.70;99.90;;;;;;5074244;28;20072;-68
2023/04/21 09:04:41;;;;;;;34.85;25.92;;;;;;;;;;5075082;28;20052;-67
2023/04/21 09:07:07;;;;;;;39.00;26.83;;;;;;;;;;5071958;28;20067;-68
2023/04/21 09:09:34;;;;;;;39.88;26.40;;;;;;;;;;5073842;28;20071;-68
2023/04/21 09:12:00;;;;;;;37.20;25.55;;;15.00;99.90;;;;;;5074478;28;20036;-68
2023/04/21 09:14:34;;;;;;;40.22;26.42;;;15.20;99.90;;;;;;5072966;28;20053;-68
2023/04/21 09:17:01;;;;;;;36.90;26.92;;;15.30;99.90;;;;;;5075550;28;20108;-67
2023/04/21 09:19:27;;;;;;;37.38;24.80;;;15.20;99.90;;;;;;5074598;28;20041;-68
2023/04/21 09:21:53;;;;;;;41.10;25.38;;;15.40;99.90;;;;;;5074370;28;20119;-67
2023/04/21 09:24:19;;;;;;;34.80;24.60;;;15.60;1.00;;;;;;5075575;28;20111;-67
2023/04/21 09:26:49;;;;;;;38.20;26.20;;;;;;;;;;5075013;28;20028;-68
2023/04/21 09:29:15;;;;;;;37.92;25.23;;;15.70;1.00;;;;;;5074007;28;20497;-67
2023/04/21 09:31:43;;;;;;;38.50;24.90;;;15.80;99.90;;;;;;5073364;28;20032;-67
2023/04/21 09:34:18;;;;;;;40.03;26.45;;;16.00;1.00;;;;;;5075066;28;20032;-68
2023/04/21 09:36:45;;;;;;;37.97;25.63;;;15.90;99.90;;;;;;5073678;28;20029;-68
2023/04/21 09:39:10;;;;;;;37.90;25.20;;;15.90;99.90;;;;;;5074881;28;20530;-68
2023/04/21 09:41:36;;;;;;;39.05;25.75;;;15.70;99.90;;;;;;5073083;28;20028;-68
2023/04/21 09:44:03;;;;;;;35.00;26.02;;;15.50;99.90;;;;;;5073130;28;20478;-67
2023/04/21 09:46:31;;;;;;;37.15;25.15;;;15.30;99.90;;;;;;5071979;28;20466;-67
2023/04/21 09:48:59;;;;;;;37.10;26.20;;;15.20;99.90;;;;;;5075067;28;20025;-67
2023/04/21 09:51:26;;;;;;;33.75;25.38;;;15.30;1.00;;;;;;5073652;28;20035;-68
2023/04/21 09:53:57;;;;;;;37.13;25.77;;;15.30;99.90;;;;;;5073114;28;20028;-67
2023/04/21 09:56:24;;;;;;;41.13;27.05;;;15.20;1.00;;;;;;5068911;28;20462;-67
2023/04/21 09:58:52;;;;;;;39.88;27.27;;;15.10;1.00;;;;;;5067598;28;20048;-67
2023/04/21 10:01:19;;;;;;;38.90;27.17;;;15.10;80.40;;;;;;5072626;28;20032;-67
2023/04/21 10:03:47;;;;;;;39.28;26.25;;;15.20;99.90;;;;;;5074538;28;20105;-68
2023/04/21 10:06:13;;;;;;;38.83;26.10;;;15.30;35.10;;;;;;5074441;28;20025;-67
2023/04/21 10:08:40;;;;;;;38.08;25.35;;;15.60;47.50;;;;;;5074655;28;20486;-68
2023/04/21 10:11:06;;;;;;;40.13;25.05;;;15.80;7.70;;;;;;5072772;28;20071;-68
2023/04/21 10:13:32;;;;;;;35.72;25.60;;;16.20;1.00;;;;;;5072329;28;20431;-69
2023/04/21 10:16:06;;;;;;;39.22;26.23;;;;;;;;;;5070397;28;20040;-68
2023/04/21 10:18:34;;;;;;;39.60;25.60;;;;;;;;;;5073012;28;20021;-68
2023/04/21 10:21:05;;;;;;;34.38;24.77;;;17.00;99.90;;;;;;5072144;28;20472;-68
2023/04/21 10:23:47;;;;;;;35.60;24.27;;;17.60;1.30;;;;;;5073189;28;20024;-67
2023/04/21 10:26:24;;;;;;;38.25;24.83;;;18.10;99.90;;;;;;5073010;28;20505;-68
2023/04/21 10:28:55;;;;;;;33.40;23.80;;;18.20;46.30;;;;;;5072577;28;20496;-67
2023/04/21 10:36:50;;;;;;;32.75;24.00;;;18.30;1.00;;;;;;5111744;27;20930;-67
2023/04/21 10:39:36;;;;;;;;;;;17.50;1.00;;;;;;5111171;28;20026;-67
2023/04/21 10:47:39;;;;;;;28.15;21.00;;;17.80;1.00;;;;;;5110904;27;20388;-67
2023/04/21 10:50:21;;;;;;;31.60;21.42;;;17.20;1.00;;;;;;5099063;28;20024;-67
2023/04/21 10:52:58;;;;;;;27.35;20.77;;;16.90;1.00;;;;;;5092810;28;20024;-67
2023/04/21 10:55:26;;;;;;;29.88;20.70;;;16.70;1.00;;;;;;5109509;28;20019;-67
2023/04/21 10:57:52;;;;;;;29.55;21.05;;;16.80;1.00;;;;;;5108070;27;20052;-67
2023/04/21 11:00:20;;;;;;;35.50;22.02;;;16.70;1.00;;;;;;5109326;28;20066;-67
2023/04/21 11:02:55;;;;;;;37.47;22.13;;;17.10;1.00;;;;;;5108219;28;20115;-68
2023/04/21 11:05:28;;;;;;;29.95;21.90;;;17.40;1.00;;;;;;5106371;28;20020;-67
2023/04/21 11:08:05;;;;;;;35.95;22.63;;;17.40;1.00;;;;;;5110130;28;20032;-68
2023/04/21 11:10:41;;;;;;;28.08;21.02;;;17.40;1.00;;;;;;5109509;28;20370;-67
2023/04/21 11:13:07;;;;;;;35.35;22.70;;;17.30;1.00;;;;;;5094694;28;20136;-67
2023/04/21 11:15:33;;;;;;;28.92;21.33;;;17.00;1.00;;;;;;5106205;27;20041;-67
2023/04/21 11:17:58;;;;;;;31.33;22.23;;;17.10;1.00;;;;;;5110059;28;20040;-68
2023/04/21 11:20:24;;;;;;;31.90;20.80;;;17.10;1.00;;;;;;5109836;27;20015;-67
2023/04/21 11:22:52;;;;;;;31.38;21.23;;;17.20;1.00;;;;;;5109584;28;20059;-67
2023/04/21 11:25:18;;;;;;;34.17;22.23;;;17.50;1.00;;;;;;5105945;28;20032;-67
2023/04/21 11:27:54;;;;;;;31.95;21.65;;;17.50;99.90;;;;;;5101127;28;20024;-67
2023/04/21 11:30:20;;;;;;;33.45;21.45;;;17.30;99.90;;;;;;5097828;28;20032;-68
2023/04/21 11:32:53;;;;;;;32.50;22.30;;;17.30;1.00;;;;;;5097479;28;20032;-67
2023/04/21 11:35:18;;;;;;;28.50;20.15;;;17.50;99.90;;;;;;5108068;28;20027;-67
2023/04/21 11:37:44;;;;;;;29.50;21.17;;;17.50;99.90;;;;;;5110844;28;20066;-67
2023/04/21 11:40:10;;;;;;;29.45;19.58;;;17.60;99.90;;;;;;5108617;27;20024;-68
2023/04/21 11:42:36;;;;;;;28.30;19.20;;;17.70;99.90;;;;;;5110927;28;20433;-67
2023/04/21 11:45:03;;;;;;;25.23;19.73;;;17.90;99.90;;;;;;5108383;27;20038;-68
2023/04/21 11:47:28;;;;;;;27.15;19.00;;;18.10;99.90;;;;;;5094906;28;20076;-68
2023/04/21 11:49:58;;;;;;;27.02;19.60;;;18.00;99.90;;;;;;5109614;28;20449;-68
2023/04/21 11:52:27;;;;;;;27.80;18.88;;;18.10;91.20;;;;;;5110364;28;20024;-67
2023/04/21 11:55:16;;;;;;;28.50;19.88;;;18.20;66.80;;;;;;5109499;28;20028;-68
2023/04/21 11:57:42;;;;;;;27.05;18.55;;;18.50;99.90;;;;;;5102374;27;20024;-69
2023/04/21 12:00:10;;;;;;;28.50;18.65;;;18.90;1.00;;;;;;5097041;28;20032;-67
2023/04/21 12:02:36;;;;;;;24.00;18.23;;;18.80;1.00;;;;;;5093928;28;20036;-68
2023/04/21 12:05:08;;;;;;;25.42;16.58;;;18.80;1.00;;;;;;5095134;28;20561;-67
2023/04/21 12:07:37;;;;;;;24.55;17.13;;;18.80;99.90;;;;;;5097555;28;20385;-67
2023/04/21 12:10:12;;;;;;;27.38;15.98;;;18.70;99.90;;;;;;5095470;28;20024;-67
2023/04/21 12:12:40;;;;;;;22.52;16.08;;;18.90;99.90;;;;;;5094763;28;20602;-67
2023/04/21 12:15:07;;;;;;;29.90;16.55;;;18.80;60.00;;;;;;5107662;28;20062;-67
2023/04/21 12:17:44;;;;;;;22.77;16.20;;;18.70;99.90;;;;;;5105545;28;20023;-68
2023/04/21 12:20:10;;;;;;;23.15;16.40;;;19.20;99.90;;;;;;5106310;28;20495;-68
2023/04/21 12:22:35;;;;;;;20.75;15.63;;;19.40;99.90;;;;;;5109502;28;20491;-69
2023/04/21 12:25:01;;;;;;;21.80;15.80;;;19.60;99.90;;;;;;5099209;28;20024;-68
2023/04/21 12:27:27;;;;;;;25.48;15.25;;;19.60;1.00;;;;;;5095621;28;20024;-67
2023/04/21 12:29:52;;;;;;;21.02;14.23;;;19.80;99.90;;;;;;5094019;28;20024;-67
2023/04/21 12:32:19;;;;;;;20.95;14.85;;;19.70;99.90;;;;;;5102738;28;20067;-68
2023/04/21 12:34:44;;;;;;;20.00;15.38;;;19.70;99.90;;;;;;5098194;28;20070;-68
2023/04/21 12:37:10;;;;;;;21.42;15.07;;;19.80;99.90;;;;;;5100120;28;20025;-68
2023/04/21 12:39:36;;;;;;;21.70;15.35;;;19.60;99.90;;;;;;5100569;28;20035;-67
2023/04/21 12:42:01;;;;;;;20.50;15.02;;;19.70;99.90;;;;;;5107360;28;20048;-67
2023/04/21 12:44:27;;;;;;;18.30;14.32;;;19.30;99.90;;;;;;5107640;28;20030;-68